Latest Weather Observations for Mortlake

IDV60801

Issued at 9:32 am EST Saturday 1 October 2016 (issued every 30 minutes, with the page automatically refreshed every 10 minutes)

About weather observations | Map of weather stations | Latest weather observations for VIC | Other Formats
Station Details ID: 090176 Name: MORTLAKE RACECOURSE Lat: -38.07 Lon: 142.77 Height: 130.0 m
Data from the previous 72 hours. | See also: Recent months at Mortlake
Date/Time
EST
Temp
°C
App
Temp
°C
Dew
Point
°C
Rel
Hum
%
Delta-T
°C
Wind Press
QNH
hPa
Press
MSL
hPa
Rain since
9am
mm
Dir  Spd
km/h
Gust
km/h
Spd
kts
Gust
kts
01/09:30am 11.9 7.9 11.9 100 0.0 W 24 37 13 20 1003.7 1003.8 0.0
01/09:00am 11.0 6.4 11.0 100 0.0 WNW 26 43 14 23 1003.4 1003.5 15.8
01/08:30am 10.7 6.4 10.7 100 0.0 WNW 24 35 13 19 1003.0 1003.1 15.8
01/08:00am 10.4 5.2 10.4 100 0.0 WNW 28 41 15 22 1002.5 1002.6 15.8
01/07:30am 10.5 5.8 10.5 100 0.0 WNW 26 35 14 19 1002.0 1002.1 15.8
01/07:00am 10.3 5.9 10.3 100 0.0 WNW 24 35 13 19 1001.6 1001.7 15.8
01/06:30am 10.3 6.3 10.3 100 0.0 WNW 22 32 12 17 1001.1 1001.2 15.8
01/06:00am 10.4 7.0 10.4 100 0.0 WNW 19 33 10 18 1000.5 1000.6 15.4
01/05:30am 10.6 8.3 10.6 100 0.0 W 13 17 7 9 1000.1 1000.1 13.8
01/05:00am 10.6 7.0 10.6 100 0.0 W 20 28 11 15 999.7 999.7 12.0
01/04:30am 10.7 7.1 10.7 100 0.0 W 20 39 11 21 999.3 999.3 11.2
01/04:00am 10.8 7.3 10.8 100 0.0 W 20 30 11 16 998.9 998.9 10.6
01/03:30am 10.6 7.0 10.6 100 0.0 W 20 32 11 17 998.6 998.6 10.4
01/03:00am 10.9 8.4 10.9 100 0.0 W 15 24 8 13 998.3 998.3 8.4
01/02:30am 11.0 8.9 11.0 100 0.0 WSW 13 24 7 13 998.0 998.0 5.0
01/02:00am 10.9 7.4 10.9 100 0.0 W 20 28 11 15 997.9 997.9 2.8
01/01:30am 11.1 8.2 11.1 100 0.0 W 17 32 9 17 997.6 997.7 1.4
01/01:00am 11.2 7.8 11.2 100 0.0 W 20 30 11 16 997.6 997.7 0.6
01/12:30am 11.2 8.0 11.2 100 0.0 W 19 28 10 15 997.5 997.6 0.6
01/12:00am 11.1 7.9 11.1 100 0.0 W 19 28 10 15 997.3 997.4 0.6
 
Date/Time
EST
Temp
°C
App
Temp
°C
Dew
Point
°C
Rel
Hum
%
Delta-T
°C
Wind Press
QNH
hPa
Press
MSL
hPa
Rain since
9am
mm
Dir  Spd
km/h
Gust
km/h
Spd
kts
Gust
kts
30/11:30pm 11.1 8.2 11.1 100 0.0 WNW 17 24 9 13 997.2 997.3 0.2
30/11:00pm 11.4 8.2 11.4 100 0.0 W 19 28 10 15 997.2 997.3 0.0
30/10:30pm 11.3 8.5 11.3 100 0.0 WNW 17 22 9 12 997.3 997.4 0.0
30/10:00pm 11.0 8.5 11.0 100 0.0 WNW 15 20 8 11 997.4 997.5 0.0
30/09:30pm 10.8 8.6 10.8 100 0.0 WNW 13 19 7 10 997.4 997.5 0.0
30/09:00pm 10.7 9.2 10.5 99 0.1 NW 9 13 5 7 997.5 997.6 0.0
30/08:30pm 10.8 9.7 10.5 98 0.2 W 7 9 4 5 997.3 997.4 0.0
30/08:00pm 10.6 9.5 9.8 95 0.4 W 6 6 3 3 997.1 997.2 0.0
30/07:30pm 10.4 9.9 9.2 92 0.6 SW 2 4 1 2 996.8 996.9 0.0
30/07:00pm 10.1 9.0 8.4 89 0.8 SW 4 6 2 3 996.5 996.6 0.0
30/06:30pm 11.0 9.4 8.2 83 1.4 WSW 6 7 3 4 996.2 996.3 0.0
30/06:00pm 12.4 10.4 8.5 77 2.0 SW 9 13 5 7 995.8 995.9 0.0
30/05:30pm 13.5 11.3 9.2 75 2.2 SW 11 17 6 9 995.5 995.6 0.0
30/05:00pm 13.7 10.9 8.7 72 2.6 SW 13 17 7 9 995.4 995.5 0.0
30/04:30pm 14.0 11.6 8.6 70 2.7 SW 11 17 6 9 995.2 995.3 0.0
30/04:00pm 14.1 11.7 8.7 70 2.8 WSW 11 19 6 10 995.1 995.2 0.0
30/03:30pm 13.3 9.8 8.6 73 2.4 SW 17 24 9 13 995.0 995.1 0.0
30/03:00pm 13.0 8.4 8.3 73 2.4 SW 22 28 12 15 994.9 995.0 0.0
30/02:30pm 13.3 10.2 8.8 74 2.3 SW 15 17 8 9 994.3 994.4 0.0
30/02:00pm 13.4 10.6 8.5 72 2.5 SSW 13 19 7 10 994.2 994.3 0.0
30/01:30pm 15.0 12.7 8.9 67 3.1 W 11 17 6 9 994.0 994.1 0.0
30/01:00pm 14.8 12.3 9.8 72 2.6 W 13 24 7 13 993.8 993.8 0.0
30/12:30pm 13.1 10.3 8.4 73 2.4 WSW 13 20 7 11 993.6 993.6 0.0
30/12:00pm 12.9 10.3 7.6 70 2.6 SSW 11 19 6 10 993.5 993.5 0.0
30/11:30am 14.0 12.7 10.0 77 2.1 WSW 7 19 4 10 993.4 993.4 0.0
30/11:00am 13.0 10.8 10.7 86 1.2 W 13 17 7 9 993.6 993.6 0.0
30/10:30am 12.9 9.8 9.0 77 2.0 SW 15 20 8 11 993.6 993.6 0.0
30/10:00am 12.8 10.9 10.5 86 1.2 WSW 11 17 6 9 993.4 993.4 0.0
30/09:30am 12.7 9.9 8.6 76 2.1 SW 13 19 7 10 993.1 993.1 0.0
30/09:00am 12.4 10.0 10.0 85 1.2 WSW 13 19 7 10 992.7 992.7 1.2
30/08:30am 11.4 8.9 9.7 89 0.9 WSW 13 17 7 9 992.6 992.6 1.2
30/08:00am 10.3 8.3 10.3 100 0.0 WSW 11 17 6 9 992.3 992.3 1.2
30/07:30am 9.2 7.7 9.2 100 0.0 WSW 7 11 4 6 991.9 991.9 1.2
30/07:00am 8.0 6.2 8.0 100 0.0 WSW 7 9 4 5 991.6 991.6 1.2
30/06:30am 7.5 5.6 7.5 100 0.0 W 7 9 4 5 991.1 991.1 1.2
30/06:00am 7.3 5.0 7.3 100 0.0 W 9 11 5 6 990.7 990.7 1.2
30/05:30am 7.0 5.0 7.0 100 0.0 WSW 7 11 4 6 990.4 990.4 1.2
30/05:00am 7.4 4.7 7.4 100 0.0 SW 11 13 6 7 990.1 990.1 1.2
30/04:30am 7.2 4.8 7.2 100 0.0 SW 9 13 5 7 990.0 990.0 1.2
30/04:00am 7.0 5.2 7.0 100 0.0 SW 6 9 3 5 989.6 989.7 1.2
30/03:30am 6.4 4.2 6.4 100 0.0 SW 7 7 4 4 989.4 989.5 1.2
30/03:00am 6.0 3.9 6.0 100 0.0 WSW 6 9 3 5 989.1 989.2 1.2
30/02:30am 5.4 2.7 5.4 100 0.0 SW 9 11 5 6 989.2 989.3 1.2
30/02:00am 6.0 3.8 6.0 100 0.0 SSW 7 9 4 5 989.2 989.3 1.2
30/01:30am 6.4 3.9 6.4 100 0.0 S 9 13 5 7 989.4 989.5 1.2
30/01:00am 6.5 3.6 6.4 99 0.0 S 11 15 6 8 989.4 989.5 1.2
30/12:30am 7.2 4.4 7.1 99 0.0 SSE 11 15 6 8 989.1 989.2 1.2
30/12:00am 7.5 4.8 7.4 99 0.0 S 11 15 6 8 989.0 989.1 1.2
 
Date/Time
EST
Temp
°C
App
Temp
°C
Dew
Point
°C
Rel
Hum
%
Delta-T
°C
Wind Press
QNH
hPa
Press
MSL
hPa
Rain since
9am
mm
Dir  Spd
km/h
Gust
km/h
Spd
kts
Gust
kts
29/11:30pm 8.0 5.8 7.9 99 0.0 SSE 9 11 5 6 988.9 989.0 1.2
29/11:00pm 8.0 5.4 7.9 99 0.0 SE 11 15 6 8 988.9 989.0 1.2
29/10:30pm 8.1 6.3 7.8 98 0.1 SSE 7 9 4 5 988.9 989.0 0.8
29/10:00pm 8.1 6.2 7.7 97 0.2 SSE 7 9 4 5 988.9 989.0 0.8
29/09:30pm 8.0 6.1 7.4 96 0.3 SE 7 9 4 5 988.9 989.0 0.6
29/09:00pm 7.9 5.9 7.0 94 0.4 SE 7 9 4 5 988.9 989.0 0.6
29/08:30pm 8.5 6.5 7.1 91 0.7 E 7 11 4 6 988.7 988.8 0.6
29/08:00pm 8.4 6.5 6.5 88 0.9 E 6 7 3 4 988.7 988.8 0.6
29/07:30pm 8.5 6.4 6.6 88 0.9 ENE 7 13 4 7 988.3 988.4 0.6
29/07:00pm 8.7 6.4 7.5 92 0.6 ESE 9 13 5 7 987.9 988.0 0.6
29/06:30pm 8.7 6.6 6.8 88 0.9 E 7 11 4 6 987.7 987.8 0.6
29/06:00pm 9.3 6.9 7.1 86 1.1 ENE 9 13 5 7 987.6 987.7 0.6
29/05:30pm 9.3 6.5 7.1 86 1.0 NE 11 15 6 8 987.5 987.5 0.6
29/05:00pm 10.5 6.7 7.6 82 1.4 NNE 17 26 9 14 987.1 987.1 0.6
29/04:30pm 10.8 7.8 7.5 80 1.6 N 13 20 7 11 986.9 986.9 0.6
29/04:00pm 10.1 6.2 7.3 83 1.4 NNW 17 26 9 14 986.6 986.6 0.4
29/03:30pm 11.6 6.9 5.9 68 2.7 N 20 28 11 15 986.5 986.5 0.4
29/03:00pm 11.7 6.6 6.2 69 2.6 N 22 35 12 19 986.5 986.5 0.4
29/02:30pm 11.2 6.4 7.5 78 1.8 NNE 22 33 12 18 986.7 986.7 0.4
29/02:00pm 11.4 6.8 6.5 72 2.4 N 20 28 11 15 986.8 986.8 0.2
29/01:30pm 12.2 6.3 5.8 65 3.0 N 26 33 14 18 987.0 987.0 0.2
29/01:00pm 12.2 6.8 6.3 67 2.8 N 24 33 13 18 987.2 987.2 0.0
29/12:30pm 12.9 6.8 6.5 65 3.1 N 28 37 15 20 987.2 987.2 0.0
29/12:00pm 13.2 7.1 6.8 65 3.1 N 28 39 15 21 987.4 987.4 0.0
29/11:30am 11.7 6.6 5.8 67 2.8 N 22 32 12 17 987.5 987.5 0.0
29/11:00am 12.4 8.0 6.7 68 2.8 N 19 33 10 18 987.6 987.7 0.0
29/10:30am 10.3 5.6 5.3 71 2.3 N 19 28 10 15 987.9 988.0 0.0
29/10:00am 11.3 6.6 6.2 71 2.4 N 20 28 11 15 987.9 988.0 0.0
29/09:30am 11.6 7.0 6.3 70 2.5 N 20 28 11 15 988.0 988.1 0.0
29/09:00am 10.7 4.4 5.9 72 2.3 NNW 28 35 15 19 988.1 988.2 8.2
29/08:30am 11.0 7.4 8.2 83 1.4 N 17 26 9 14 987.9 988.0 8.2
29/08:00am 9.6 6.7 8.0 90 0.8 NNE 13 19 7 10 988.1 988.2 8.2
29/07:30am 8.7 6.4 7.3 91 0.7 NNE 9 13 5 7 987.6 987.7 8.2
29/07:00am 8.2 5.1 7.1 93 0.5 NNW 13 20 7 11 987.5 987.5 8.2
29/06:30am 8.0 5.0 7.9 99 0.0 N 13 24 7 13 987.5 987.5 8.2
29/06:00am 8.3 5.8 8.3 100 0.0 N 11 15 6 8 987.0 987.0 8.2
29/05:30am 8.1 5.9 8.0 99 0.0 N 9 13 5 7 987.0 987.0 8.2
29/05:00am 8.0 3.6 7.4 96 0.3 NW 20 39 11 21 987.2 987.2 8.0
29/04:47am 8.4 4.0 7.5 94 0.4 NW 20 44 11 24 987.1 987.1 7.6
29/04:30am 9.2 5.2 8.1 93 0.5 NNW 19 24 10 13 986.3 986.3 7.4
29/04:00am 10.3 6.4 8.6 89 0.9 NNW 19 28 10 15 985.8 985.8 7.4
29/03:30am 10.9 6.1 8.8 87 1.0 NNW 24 35 13 19 985.7 985.7 7.4
29/03:17am 11.2 3.9 8.8 85 1.2 NNW 37 56 20 30 985.5 985.5 7.4
29/03:08am 12.4 6.1 11.0 91 0.7 N 35 57 19 31 985.3 985.3 7.4
29/03:04am 12.3 6.6 11.2 93 0.6 NNE 32 52 17 28 985.0 985.0 7.4
29/03:00am 12.2 6.8 10.9 92 0.7 NNE 30 43 16 23 985.0 985.0 7.4
29/02:30am 12.3 6.4 10.4 88 1.0 NE 32 43 17 23 985.0 985.0 7.4
29/02:00am 12.5 6.5 10.2 86 1.2 NNE 32 46 17 25 985.7 985.7 7.4
29/01:30am 12.3 6.3 10.0 86 1.2 NNE 32 46 17 25 986.5 986.5 7.4
29/01:00am 12.2 5.9 10.9 92 0.7 NE 35 48 19 26 986.8 986.8 7.4
29/12:30am 11.5 4.9 11.5 100 0.0 NE 37 52 20 28 987.6 987.7 7.4
29/12:25am 11.4 4.8 11.4 100 0.0 NE 37 52 20 28 987.8 987.9 7.4
29/12:00am 11.1 7.3 11.1 100 0.0 NNE 22 32 12 17 989.9 989.9 7.2
 
Date/Time
EST
Temp
°C
App
Temp
°C
Dew
Point
°C
Rel
Hum
%
Delta-T
°C
Wind Press
QNH
hPa
Press
MSL
hPa
Rain since
9am
mm
Dir  Spd
km/h
Gust
km/h
Spd
kts
Gust
kts
28/11:30pm 11.3 7.5 11.0 98 0.2 N 22 37 12 20 991.5 991.5 4.0
28/11:03pm 11.6 6.4 10.2 91 0.7 NNE 28 48 15 26 991.6 991.6 1.6
28/11:00pm 11.7 5.7 10.1 90 0.8 NNE 32 48 17 26 991.8 991.8 1.4
28/10:30pm 12.1 5.8 9.8 86 1.2 NE 33 46 18 25 991.6 991.6 0.8
28/10:00pm 12.3 6.2 9.7 84 1.3 NE 32 48 17 26 992.5 992.5 0.6
28/09:43pm 12.3 6.1 9.5 83 1.4 NE 32 50 17 27 993.2 993.2 0.6
28/09:30pm 12.3 6.2 9.7 84 1.3 NE 32 43 17 23 993.4 993.4 0.6
28/09:00pm 12.2 7.3 9.8 85 1.2 NE 26 37 14 20 994.2 994.3 0.6
28/08:30pm 12.4 6.3 9.8 84 1.3 NE 32 48 17 26 995.2 995.3 0.6
28/08:00pm 12.5 7.2 9.9 84 1.4 NE 28 37 15 20 995.7 995.8 0.4
28/07:30pm 12.7 8.1 9.7 82 1.5 NE 24 35 13 19 996.3 996.4 0.0
28/07:00pm 13.2 9.2 8.9 75 2.2 NE 20 30 11 16 996.7 996.8 0.0
28/06:30pm 13.4 9.3 8.7 73 2.4 NNE 20 28 11 15 997.0 997.1 0.0
28/06:00pm 13.8 9.3 8.6 71 2.6 NNE 22 30 12 16 997.5 997.6 0.0
28/05:30pm 13.8 9.3 8.4 70 2.7 NE 22 32 12 17 997.6 997.7 0.0
28/05:00pm 14.1 9.2 8.5 69 2.9 NE 24 35 13 19 998.0 998.0 0.0
28/04:30pm 14.6 9.7 8.5 67 3.1 NNE 24 33 13 18 998.8 998.8 0.0
28/04:00pm 15.1 10.3 8.8 66 3.2 NNE 24 32 13 17 999.4 999.4 0.0
28/03:30pm 15.5 9.1 8.7 64 3.5 NNE 32 43 17 23 1000.3 1000.3 0.0
28/03:00pm 16.1 10.7 9.5 65 3.5 NNE 28 46 15 25 1000.5 1000.6 0.0
28/02:54pm 16.2 10.6 8.9 62 3.8 NNE 28 46 15 25 1000.3 1000.3 0.0
28/02:30pm 16.1 9.8 8.8 62 3.8 NNE 32 46 17 25 1001.1 1001.2 0.0
28/02:00pm 16.2 9.8 8.7 61 3.9 NNE 32 43 17 23 1001.7 1001.8 0.0
28/01:30pm 16.7 10.8 8.9 60 4.0 NNE 30 43 16 23 1002.6 1002.7 0.0
28/01:00pm 16.6 10.0 8.6 59 4.1 NNE 33 44 18 24 1004.0 1004.1 0.0
28/12:30pm 16.9 11.4 9.1 60 4.1 NNE 28 39 15 21 1004.5 1004.6 0.0
28/12:00pm 16.5 10.2 9.0 61 3.9 N 32 41 17 22 1006.1 1006.1 0.0
28/11:30am 16.2 10.3 9.2 63 3.6 N 30 41 16 22 1007.0 1007.1 0.0
28/11:00am 15.4 9.4 8.6 64 3.5 N 30 41 16 22 1007.9 1008.0 0.0
28/10:30am 14.4 9.1 8.4 67 3.0 N 26 35 14 19 1008.8 1008.9 0.0
28/10:00am 14.4 9.5 8.6 68 2.9 N 24 35 13 19 1009.4 1009.5 0.0

Other Formats:

Comma delimited format used in spreadsheet applications
http://www.bom.gov.au/fwo/IDV60801/IDV60801.94840.axf

JavaScript Object Notation format (JSON) in row-major order
http://www.bom.gov.au/fwo/IDV60801/IDV60801.94840.json